createdAt,value
2023-03-06T00:00:42.143Z,16.55
2023-03-06T00:03:10.161Z,16.65
2023-03-06T00:05:37.764Z,18.23
2023-03-06T00:08:05.437Z,18.92
2023-03-06T00:10:33.563Z,20.17
2023-03-06T00:13:03.271Z,18.63
2023-03-06T00:15:30.988Z,20.10
2023-03-06T00:17:58.194Z,20.15
2023-03-06T00:20:28.782Z,19.08
2023-03-06T00:22:57.419Z,20.13
2023-03-06T00:25:25.207Z,19.48
2023-03-06T00:27:52.631Z,19.95
2023-03-06T00:30:22.559Z,20.67
2023-03-06T00:32:50.358Z,19.45
2023-03-06T00:35:18.078Z,20.40
2023-03-06T00:37:46.294Z,20.60
2023-03-06T00:40:16.716Z,19.85
2023-03-06T00:42:45.515Z,20.05
2023-03-06T00:45:13.494Z,18.95
2023-03-06T00:47:41.342Z,20.63
2023-03-06T00:50:09.916Z,20.67
2023-03-06T00:52:37.586Z,20.58
2023-03-06T00:55:05.758Z,20.85
2023-03-06T00:57:33.064Z,20.35
2023-03-06T01:00:01.216Z,19.98
2023-03-06T01:02:28.223Z,20.55
2023-03-06T01:04:55.522Z,21.48
2023-03-06T01:07:22.749Z,21.77
2023-03-06T01:09:50.825Z,19.35
2023-03-06T01:12:21.347Z,19.95
2023-03-06T01:14:52.372Z,20.77
2023-03-06T01:17:19.572Z,21.77
2023-03-06T01:19:47.168Z,21.77
2023-03-06T01:22:14.454Z,21.98
2023-03-06T01:24:41.386Z,20.48
2023-03-06T01:27:08.838Z,21.05
2023-03-06T01:29:35.900Z,20.50
2023-03-06T01:32:03.127Z,21.50
2023-03-06T01:34:33.519Z,21.35
2023-03-06T01:37:01.318Z,23.92
2023-03-06T01:39:29.254Z,21.88
2023-03-06T01:41:56.899Z,22.75
2023-03-06T01:44:24.026Z,21.90
2023-03-06T01:46:51.166Z,23.65
2023-03-06T01:49:27.535Z,21.67
2023-03-06T01:51:58.677Z,22.63
2023-03-06T01:54:34.417Z,23.20
2023-03-06T01:57:07.190Z,24.30
2023-03-06T01:59:37.608Z,21.05
2023-03-06T02:02:07.154Z,23.38
2023-03-06T02:04:39.049Z,24.67
2023-03-06T02:07:08.114Z,23.40
2023-03-06T02:09:37.436Z,23.60
2023-03-06T02:12:11.354Z,24.98
2023-03-06T02:14:39.590Z,22.80
2023-03-06T02:17:08.740Z,23.13
2023-03-06T02:20:10.451Z,23.13
2023-03-06T02:23:04.510Z,22.58
2023-03-06T02:25:42.071Z,23.90
2023-03-06T02:28:16.248Z,22.13
2023-03-06T02:30:45.734Z,24.75
2023-03-06T02:33:29.695Z,24.80
2023-03-06T02:36:00.606Z,22.98
2023-03-06T02:38:47.299Z,25.40
2023-03-06T02:41:14.398Z,23.48
2023-03-06T02:43:47.836Z,24.70
2023-03-06T02:46:15.288Z,24.38
2023-03-06T02:48:42.954Z,24.40
2023-03-06T02:51:10.840Z,25.50
2023-03-06T02:53:38.338Z,23.80
2023-03-06T02:56:05.789Z,23.98
2023-03-06T02:58:35.455Z,24.38
2023-03-06T03:01:02.576Z,23.33
2023-03-06T03:03:31.085Z,23.73
2023-03-06T03:05:59.129Z,25.00
2023-03-06T03:08:30.224Z,23.83
2023-03-06T03:11:01.943Z,26.08
2023-03-06T03:13:35.925Z,25.58
2023-03-06T03:16:09.322Z,24.15
2023-03-06T03:18:37.481Z,25.40
2023-03-06T03:21:12.206Z,23.08
2023-03-06T03:23:41.292Z,25.38
2023-03-06T03:26:17.352Z,25.05
2023-03-06T03:28:50.085Z,16.35
2023-03-06T03:31:19.763Z,24.35
2023-03-06T03:33:47.045Z,24.73
2023-03-06T03:36:14.440Z,25.45
2023-03-06T03:38:45.481Z,23.98
2023-03-06T03:41:12.675Z,24.65
2023-03-06T03:43:39.708Z,26.45
2023-03-06T03:46:06.696Z,23.60
2023-03-06T03:48:34.364Z,24.50
2023-03-06T03:51:13.445Z,24.88
2023-03-06T03:53:45.057Z,25.75
2023-03-06T03:56:14.490Z,25.10
2023-03-06T03:58:53.767Z,25.38
2023-03-06T04:01:21.744Z,26.38
2023-03-06T04:03:52.789Z,26.38
2023-03-06T04:06:20.183Z,25.65
2023-03-06T04:08:47.983Z,24.50
2023-03-06T04:11:16.582Z,23.88
2023-03-06T04:13:44.319Z,25.10
2023-03-06T04:16:11.367Z,25.27
2023-03-06T04:18:40.139Z,25.85
2023-03-06T04:21:07.870Z,26.75
2023-03-06T04:23:34.942Z,25.75
2023-03-06T04:26:03.906Z,25.33
2023-03-06T04:28:31.270Z,26.42
2023-03-06T04:30:59.453Z,25.17
2023-03-06T04:33:26.848Z,26.27
2023-03-06T04:35:54.916Z,24.55
2023-03-06T04:38:26.245Z,26.25
2023-03-06T04:40:53.166Z,26.90
2023-03-06T04:43:20.226Z,27.77
2023-03-06T04:45:47.342Z,26.45
2023-03-06T04:48:22.661Z,26.92
2023-03-06T04:50:49.751Z,27.50
2023-03-06T04:53:19.672Z,28.05
2023-03-06T04:55:47.121Z,27.40
2023-03-06T04:58:15.138Z,29.35
2023-03-06T05:00:42.192Z,28.92
2023-03-06T05:03:09.696Z,27.95
2023-03-06T05:06:20.801Z,29.00
2023-03-06T05:08:47.972Z,29.10
2023-03-06T05:11:14.916Z,30.55
2023-03-06T05:14:01.066Z,30.08
2023-03-06T05:16:28.024Z,30.23
2023-03-06T05:18:54.968Z,30.33
2023-03-06T05:21:21.946Z,29.40
2023-03-06T05:24:17.041Z,31.63
2023-03-06T05:26:44.667Z,31.27
2023-03-06T05:29:29.952Z,31.35
2023-03-06T05:31:56.975Z,31.33
2023-03-06T05:34:25.008Z,33.90
2023-03-06T05:36:59.161Z,33.15
2023-03-06T05:39:27.579Z,29.27
2023-03-06T05:41:54.804Z,33.97
2023-03-06T05:44:32.543Z,32.20
2023-03-06T05:46:59.982Z,30.60
2023-03-06T05:49:31.379Z,31.13
2023-03-06T05:51:59.687Z,24.45
2023-03-06T05:54:26.816Z,30.00
2023-03-06T05:56:54.840Z,31.77
2023-03-06T05:59:21.741Z,30.83
2023-03-06T06:01:51.742Z,30.83
2023-03-06T06:04:18.648Z,32.08
2023-03-06T06:06:45.548Z,30.75
2023-03-06T06:09:13.972Z,32.45
2023-03-06T06:11:40.913Z,33.22
2023-03-06T06:14:07.799Z,31.40
2023-03-06T06:16:34.808Z,30.38
2023-03-06T06:19:01.792Z,30.95
2023-03-06T06:21:28.753Z,30.67
2023-03-06T06:23:56.435Z,32.33
2023-03-06T06:26:23.363Z,29.98
2023-03-06T06:28:50.303Z,30.60
2023-03-06T06:31:17.487Z,29.60
2023-03-06T06:33:44.643Z,28.83
2023-03-06T06:36:21.992Z,30.38
2023-03-06T06:38:50.963Z,28.48
2023-03-06T06:41:51.801Z,30.05
2023-03-06T06:44:11.355Z,29.00
2023-03-06T06:49:27.892Z,29.85
2023-03-06T06:51:54.997Z,28.63
2023-03-06T06:54:22.567Z,27.83
2023-03-06T06:56:49.640Z,28.23
2023-03-06T06:59:17.661Z,28.33
2023-03-06T07:01:45.027Z,27.65
2023-03-06T07:04:17.503Z,28.55
2023-03-06T07:06:45.897Z,28.40
2023-03-06T07:09:13.441Z,28.77
2023-03-06T07:11:43.544Z,27.33
2023-03-06T07:14:10.631Z,27.35
2023-03-06T07:16:37.759Z,27.48
2023-03-06T07:19:04.675Z,29.88
2023-03-06T07:21:31.769Z,27.50
2023-03-06T07:24:02.095Z,28.42
2023-03-06T07:26:33.503Z,27.10
2023-03-06T07:29:03.660Z,29.20
2023-03-06T07:31:30.938Z,29.20
2023-03-06T07:33:58.046Z,29.48
2023-03-06T07:36:25.155Z,30.60
2023-03-06T07:38:52.233Z,29.20
2023-03-06T07:41:22.360Z,30.75
2023-03-06T07:43:50.420Z,28.38
2023-03-06T07:46:19.534Z,30.92
2023-03-06T07:48:46.555Z,28.67
2023-03-06T07:51:23.245Z,28.10
2023-03-06T07:53:51.019Z,30.60
2023-03-06T07:56:18.038Z,26.52
2023-03-06T07:58:47.599Z,28.30
2023-03-06T08:01:17.463Z,28.13
2023-03-06T08:03:44.707Z,26.50
2023-03-06T08:06:23.785Z,28.00
2023-03-06T08:08:52.820Z,30.02
2023-03-06T08:11:21.519Z,27.33
2023-03-06T08:13:48.928Z,28.73
2023-03-06T08:16:17.603Z,26.75
2023-03-06T08:18:46.390Z,26.98
2023-03-06T08:21:19.812Z,28.70
2023-03-06T08:23:47.656Z,27.48
2023-03-06T08:26:18.147Z,26.88
2023-03-06T08:28:47.344Z,26.52
2023-03-06T08:31:31.259Z,26.65
2023-03-06T08:34:04.919Z,27.52
2023-03-06T08:36:32.197Z,26.75
2023-03-06T08:38:59.633Z,24.98
2023-03-06T08:41:27.223Z,26.67
2023-03-06T08:43:54.676Z,26.45
2023-03-06T08:46:25.419Z,25.83
2023-03-06T08:48:52.399Z,25.77
2023-03-06T08:51:20.524Z,25.77
2023-03-06T08:53:48.005Z,24.67
2023-03-06T08:56:20.835Z,25.80
2023-03-06T08:58:48.741Z,25.25
2023-03-06T09:01:19.466Z,24.77
2023-03-06T09:03:47.111Z,25.83
2023-03-06T09:06:14.718Z,25.50
2023-03-06T09:08:44.632Z,22.52
2023-03-06T09:11:15.822Z,23.20
2023-03-06T09:13:43.726Z,23.90
2023-03-06T09:16:13.212Z,23.70
2023-03-06T09:18:40.479Z,22.40
2023-03-06T09:21:08.688Z,22.70
2023-03-06T09:23:39.556Z,23.05
2023-03-06T09:26:08.491Z,23.58
2023-03-06T09:28:39.347Z,22.52
2023-03-06T09:31:15.190Z,21.95
2023-03-06T09:33:42.517Z,23.55
2023-03-06T09:36:14.911Z,21.45
2023-03-06T09:38:41.899Z,20.80
2023-03-06T09:41:33.092Z,21.63
2023-03-06T09:44:20.047Z,23.90
2023-03-06T09:47:07.084Z,22.75
2023-03-06T09:50:01.960Z,21.50
2023-03-06T09:52:58.222Z,22.63
2023-03-06T09:55:28.146Z,23.05
2023-03-06T09:58:07.549Z,24.10
2023-03-06T10:00:39.964Z,23.13
2023-03-06T10:03:20.226Z,22.90
2023-03-06T10:05:58.411Z,23.67
2023-03-06T10:08:36.414Z,21.90
2023-03-06T10:11:08.734Z,21.60
2023-03-06T10:13:38.478Z,20.75
2023-03-06T10:16:29.404Z,21.88
2023-03-06T10:19:03.590Z,20.25
2023-03-06T10:21:42.402Z,20.02
2023-03-06T10:24:34.111Z,19.05
2023-03-06T10:27:13.756Z,19.63
2023-03-06T10:30:07.317Z,20.35
2023-03-06T10:32:48.377Z,19.85
2023-03-06T10:35:20.215Z,18.88
2023-03-06T10:37:48.112Z,20.35
2023-03-06T10:40:22.138Z,20.65
2023-03-06T10:42:56.069Z,21.40
2023-03-06T10:45:33.078Z,19.77
2023-03-06T10:48:13.370Z,20.67
2023-03-06T10:50:41.189Z,19.73
2023-03-06T10:53:19.994Z,18.25
2023-03-06T10:55:56.326Z,20.02
2023-03-06T10:58:28.349Z,22.02
2023-03-06T11:03:30.780Z,19.50
2023-03-06T11:06:15.044Z,18.27
2023-03-06T11:08:45.876Z,19.65
2023-03-06T11:11:36.744Z,19.35
2023-03-06T11:14:18.293Z,19.23
2023-03-06T11:16:53.780Z,19.38
2023-03-06T11:19:26.554Z,19.55
2023-03-06T11:22:05.660Z,19.05
2023-03-06T11:24:40.690Z,19.42
2023-03-06T11:27:35.062Z,19.33
2023-03-06T11:30:06.934Z,19.90
2023-03-06T11:32:51.908Z,20.33
2023-03-06T11:35:35.390Z,21.52
2023-03-06T11:38:13.678Z,22.50
2023-03-06T11:40:52.057Z,22.33
2023-03-06T11:43:24.211Z,20.95
2023-03-06T11:48:46.362Z,22.85
2023-03-06T11:51:22.065Z,23.42
2023-03-06T11:53:49.421Z,23.95
2023-03-06T11:56:19.462Z,23.58
2023-03-06T11:59:09.466Z,22.92
2023-03-06T12:02:09.342Z,20.63
2023-03-06T12:04:55.928Z,20.27
2023-03-06T12:07:51.566Z,20.20
2023-03-06T12:10:25.263Z,18.85
2023-03-06T12:13:19.940Z,21.55
2023-03-06T12:16:07.695Z,22.55
2023-03-06T12:18:34.594Z,22.50
2023-03-06T12:21:10.445Z,20.45
2023-03-06T12:23:59.610Z,20.73
2023-03-06T12:26:35.920Z,21.15
2023-03-06T12:29:16.769Z,21.67
2023-03-06T12:31:55.739Z,19.10
2023-03-06T12:34:31.852Z,18.20
2023-03-06T12:37:37.434Z,20.50
2023-03-06T12:40:23.718Z,20.90
2023-03-06T12:43:05.207Z,20.15
2023-03-06T12:45:34.216Z,19.70
2023-03-06T12:48:03.663Z,20.02
2023-03-06T12:50:39.985Z,18.35
2023-03-06T12:53:13.294Z,20.98
2023-03-06T12:55:44.389Z,19.25
2023-03-06T12:58:35.485Z,18.65
2023-03-06T13:01:30.706Z,17.38
2023-03-06T13:04:19.364Z,15.68
2023-03-06T13:06:51.556Z,18.08
2023-03-06T13:09:38.855Z,18.50
2023-03-06T13:12:24.796Z,17.30
2023-03-06T13:14:55.892Z,18.35
2023-03-06T13:17:35.452Z,18.52
2023-03-06T13:20:36.222Z,19.10
2023-03-06T13:23:34.541Z,19.20
2023-03-06T13:26:31.989Z,18.40
2023-03-06T13:28:58.979Z,18.92
2023-03-06T13:31:46.331Z,18.70
2023-03-06T13:34:47.162Z,19.13
2023-03-06T13:37:14.209Z,18.35
2023-03-06T13:39:59.352Z,19.08
2023-03-06T13:42:32.060Z,18.02
2023-03-06T13:45:08.441Z,18.25
2023-03-06T13:48:10.703Z,17.15
2023-03-06T13:50:46.303Z,19.10
2023-03-06T13:53:28.616Z,18.08
2023-03-06T13:58:43.836Z,14.38
2023-03-06T14:01:33.651Z,14.90
2023-03-06T14:04:12.010Z,15.15
2023-03-06T14:06:51.819Z,14.20
2023-03-06T14:09:42.324Z,14.77
2023-03-06T14:12:26.621Z,15.23
2023-03-06T14:14:59.247Z,16.17
2023-03-06T14:17:35.321Z,16.58
2023-03-06T14:20:13.677Z,15.85
2023-03-06T14:22:40.952Z,12.35
2023-03-06T14:25:14.272Z,12.15
2023-03-06T14:27:47.221Z,13.35
2023-03-06T14:30:21.328Z,14.52
2023-03-06T14:32:50.748Z,15.32
2023-03-06T14:35:26.622Z,17.05
2023-03-06T14:37:57.713Z,16.80
2023-03-06T14:40:37.013Z,15.52
2023-03-06T14:43:20.586Z,17.05
2023-03-06T14:45:58.166Z,17.58
2023-03-06T14:48:36.258Z,16.83
2023-03-06T14:51:03.245Z,17.58
2023-03-06T14:53:33.689Z,18.23
2023-03-06T14:56:06.414Z,17.83
2023-03-06T14:58:41.999Z,19.17
2023-03-06T15:01:11.499Z,18.35
2023-03-06T15:03:49.348Z,17.38
2023-03-06T15:06:23.242Z,17.73
2023-03-06T15:09:08.363Z,18.50
2023-03-06T15:11:58.220Z,18.02
2023-03-06T15:14:37.345Z,18.23
2023-03-06T15:17:27.515Z,16.58
2023-03-06T15:19:56.912Z,17.67
2023-03-06T15:22:33.011Z,18.35
2023-03-06T15:25:24.206Z,17.52
2023-03-06T15:28:26.121Z,17.15
2023-03-06T15:31:21.002Z,17.13
2023-03-06T15:34:16.963Z,16.98
2023-03-06T15:36:47.592Z,16.58
2023-03-06T15:39:28.597Z,18.05
2023-03-06T15:41:59.710Z,17.30
2023-03-06T15:44:29.277Z,18.65
2023-03-06T15:47:06.633Z,21.63
2023-03-06T15:49:40.533Z,18.70
2023-03-06T15:52:09.405Z,18.23
2023-03-06T15:54:36.736Z,19.88
2023-03-06T15:57:06.253Z,20.23
2023-03-06T15:59:37.514Z,19.13
2023-03-06T16:02:18.883Z,20.30
2023-03-06T16:04:47.054Z,20.40
2023-03-06T16:07:14.968Z,20.08
2023-03-06T16:09:43.200Z,21.38
2023-03-06T16:12:19.780Z,21.98
2023-03-06T16:14:48.519Z,19.48
2023-03-06T16:17:16.535Z,20.10
2023-03-06T16:19:44.097Z,19.45
2023-03-06T16:22:15.549Z,19.33
2023-03-06T16:24:43.929Z,18.88
2023-03-06T16:27:19.008Z,18.15
2023-03-06T16:29:46.288Z,19.10
2023-03-06T16:32:13.578Z,18.70
2023-03-06T16:34:42.615Z,18.90
2023-03-06T16:37:13.113Z,19.98
2023-03-06T16:39:41.804Z,18.38
2023-03-06T16:42:08.973Z,18.48
2023-03-06T16:44:36.595Z,18.45
2023-03-06T16:47:05.816Z,18.38
2023-03-06T16:49:34.003Z,18.55
2023-03-06T16:52:01.130Z,16.55
2023-03-06T16:54:28.336Z,16.08
2023-03-06T16:56:55.966Z,16.30
2023-03-06T16:59:24.082Z,15.40
2023-03-06T17:01:52.145Z,16.95
2023-03-06T17:04:19.096Z,15.52
2023-03-06T17:06:46.664Z,14.95
2023-03-06T17:09:14.511Z,16.98
2023-03-06T17:11:44.981Z,15.75
2023-03-06T17:14:12.048Z,15.90
2023-03-06T17:16:40.589Z,16.38
2023-03-06T17:19:08.574Z,16.02
2023-03-06T17:21:38.453Z,15.07
2023-03-06T17:24:06.054Z,15.48
2023-03-06T17:26:37.174Z,15.68
2023-03-06T17:29:06.906Z,14.32
2023-03-06T17:31:34.769Z,15.82
2023-03-06T17:34:02.125Z,14.65
2023-03-06T17:36:30.442Z,14.75
2023-03-06T17:38:59.738Z,15.88
2023-03-06T17:41:27.541Z,15.25
2023-03-06T17:43:58.785Z,14.98
2023-03-06T17:46:27.145Z,14.77
2023-03-06T17:48:55.764Z,14.75
2023-03-06T17:51:24.100Z,15.05
2023-03-06T17:53:52.277Z,13.80
2023-03-06T17:56:19.438Z,15.20
2023-03-06T17:58:46.366Z,15.93
2023-03-06T18:01:22.993Z,14.30
2023-03-06T18:03:55.578Z,15.05
2023-03-06T18:06:30.505Z,15.52
2023-03-06T18:08:58.240Z,14.50
2023-03-06T18:11:31.007Z,15.50
2023-03-06T18:14:02.871Z,14.63
2023-03-06T18:16:32.166Z,15.30
2023-03-06T18:18:59.227Z,16.33
2023-03-06T18:21:26.553Z,15.25
2023-03-06T18:23:53.641Z,14.93
2023-03-06T18:26:23.201Z,14.95
2023-03-06T18:29:07.512Z,15.20
2023-03-06T18:31:40.863Z,15.65
2023-03-06T18:34:12.397Z,14.75
2023-03-06T18:36:41.044Z,15.63
2023-03-06T18:39:10.418Z,15.30
2023-03-06T18:41:38.165Z,15.68
2023-03-06T18:44:09.654Z,15.73
2023-03-06T18:46:38.655Z,14.93
2023-03-06T18:49:08.361Z,14.05
2023-03-06T18:51:35.692Z,14.88
2023-03-06T18:54:06.101Z,16.15
2023-03-06T18:56:33.906Z,14.60
2023-03-06T18:59:08.477Z,14.98
2023-03-06T19:01:35.788Z,14.40
2023-03-06T19:08:05.368Z,15.60
2023-03-06T19:10:36.210Z,15.00
2023-03-06T19:15:33.220Z,14.95
2023-03-06T19:18:01.885Z,16.38
2023-03-06T19:20:28.889Z,16.85
2023-03-06T19:22:56.115Z,15.48
2023-03-06T19:25:23.357Z,16.00
2023-03-06T19:27:50.425Z,14.60
2023-03-06T19:30:18.738Z,16.63
2023-03-06T19:32:46.095Z,16.17
2023-03-06T19:35:13.377Z,15.60
2023-03-06T19:37:44.073Z,15.30
2023-03-06T19:40:12.044Z,16.15
2023-03-06T19:42:39.069Z,16.98
2023-03-06T19:45:07.227Z,15.30
2023-03-06T19:47:34.617Z,17.50
2023-03-06T19:50:02.129Z,17.13
2023-03-06T19:52:29.598Z,16.33
2023-03-06T19:54:59.852Z,16.25
2023-03-06T19:57:28.322Z,15.43
2023-03-06T19:59:57.504Z,16.48
2023-03-06T20:02:27.287Z,14.93
2023-03-06T20:04:55.280Z,15.85
2023-03-06T20:07:24.670Z,15.60
2023-03-06T20:09:52.699Z,15.57
2023-03-06T20:12:22.615Z,13.70
2023-03-06T20:15:35.195Z,13.02
2023-03-06T20:18:02.434Z,14.63
2023-03-06T20:20:29.539Z,13.73
2023-03-06T20:22:56.687Z,13.57
2023-03-06T20:25:24.494Z,13.95
2023-03-06T20:27:51.474Z,13.07
2023-03-06T20:30:18.779Z,13.07
2023-03-06T20:32:45.752Z,11.55
2023-03-06T20:35:12.844Z,12.25
2023-03-06T20:38:07.365Z,12.50
2023-03-06T20:40:39.031Z,12.32
2023-03-06T20:43:08.119Z,12.48
2023-03-06T20:45:35.651Z,13.68
2023-03-06T20:48:02.749Z,14.20
2023-03-06T20:50:29.678Z,11.13
2023-03-06T20:52:58.914Z,11.82
2023-03-06T20:55:25.860Z,11.73
2023-03-06T20:57:53.607Z,12.02
2023-03-06T21:00:21.137Z,11.73
2023-03-06T21:02:48.249Z,12.88
2023-03-06T21:05:15.244Z,13.40
2023-03-06T21:07:42.394Z,12.52
2023-03-06T21:10:10.912Z,13.05
2023-03-06T21:12:37.862Z,12.57
2023-03-06T21:15:05.311Z,12.65
2023-03-06T21:17:38.672Z,12.32
2023-03-06T21:20:15.517Z,13.55
2023-03-06T21:22:42.701Z,13.77
2023-03-06T21:25:57.081Z,14.07
2023-03-06T21:28:24.295Z,13.55
2023-03-06T21:30:51.644Z,14.38
2023-03-06T21:33:18.698Z,12.68
2023-03-06T21:35:47.024Z,13.23
2023-03-06T21:38:14.799Z,12.68
2023-03-06T21:40:42.718Z,14.07
2023-03-06T21:43:10.164Z,12.43
2023-03-06T21:45:37.566Z,12.65
2023-03-06T21:48:06.823Z,12.18
2023-03-06T21:50:33.871Z,10.95
2023-03-06T21:53:19.601Z,10.57
2023-03-06T21:55:46.759Z,10.00
2023-03-06T21:58:13.894Z,9.63
2023-03-06T22:00:41.100Z,9.30
2023-03-06T22:03:08.036Z,9.32
2023-03-06T22:05:38.201Z,9.68
2023-03-06T22:08:05.299Z,9.00
2023-03-06T22:10:32.337Z,8.80
2023-03-06T22:13:29.684Z,8.57
2023-03-06T22:15:56.837Z,8.73
2023-03-06T22:18:24.301Z,8.82
2023-03-06T22:20:53.039Z,9.05
2023-03-06T22:23:20.066Z,9.10
2023-03-06T22:29:46.288Z,9.43
2023-03-06T22:32:13.399Z,9.82
2023-03-06T22:39:02.568Z,9.27
2023-03-06T22:41:30.003Z,10.35
2023-03-06T22:44:00.449Z,11.00
2023-03-06T22:46:28.502Z,9.13
2023-03-06T22:49:05.408Z,10.02
2023-03-06T22:51:32.430Z,10.25
2023-03-06T22:53:59.499Z,10.15
2023-03-06T22:56:26.946Z,10.27
2023-03-06T22:58:54.040Z,11.38
2023-03-06T23:01:25.322Z,10.30
2023-03-06T23:04:00.623Z,8.98
2023-03-06T23:06:33.159Z,10.18
2023-03-06T23:09:01.654Z,9.48
2023-03-06T23:11:29.657Z,9.23
2023-03-06T23:14:25.596Z,10.13
2023-03-06T23:17:11.230Z,10.02
2023-03-06T23:19:57.197Z,10.35
2023-03-06T23:22:43.192Z,9.52
2023-03-06T23:25:29.184Z,9.80
2023-03-06T23:27:56.125Z,10.13
2023-03-06T23:30:23.597Z,10.48
2023-03-06T23:32:53.208Z,9.10
2023-03-06T23:35:20.346Z,9.82
2023-03-06T23:37:47.319Z,10.07
2023-03-06T23:40:14.976Z,9.05
2023-03-06T23:42:42.001Z,9.40
2023-03-06T23:45:12.383Z,10.15
2023-03-06T23:47:39.465Z,10.35
2023-03-06T23:50:06.849Z,9.07
2023-03-06T23:52:34.299Z,9.65
2023-03-06T23:55:02.373Z,9.27
2023-03-06T23:57:45.556Z,9.20
